Time;durP1;ratioP1;P1;durP2;ratioP2;P2;SDS_P1;SDS_P2;PMS_P1;PMS_P2;Temp;Humidity;BMP_temperature;BMP_pressure;BME280_temperature;BME280_humidity;BME280_pressure;Samples;Min_cycle;Max_cycle;Signal;HPM_P1;HPM_P2
2022/08/27 00:01:19;;;;;;;6.33;5.83;;;25.40;65.30;;;;;;927148;152;27416;-76
2022/08/27 00:03:45;;;;;;;7.25;6.62;;;25.40;65.30;;;;;;944136;151;27315;-76
2022/08/27 00:06:12;;;;;;;6.83;6.17;;;25.40;65.40;;;;;;929318;151;27464;-76
2022/08/27 00:08:38;;;;;;;16.05;6.72;;;25.40;65.40;;;;;;940412;149;27317;-76
2022/08/27 00:11:05;;;;;;;6.97;6.37;;;25.40;65.40;;;;;;928770;154;27414;-76
2022/08/27 00:13:31;;;;;;;7.33;6.00;;;25.40;65.50;;;;;;928170;152;27423;-76
2022/08/27 00:15:58;;;;;;;6.10;5.60;;;25.30;65.60;;;;;;929035;154;27399;-76
2022/08/27 00:18:25;;;;;;;7.60;6.33;;;25.30;65.60;;;;;;935779;151;27487;-76
2022/08/27 00:20:51;;;;;;;7.97;5.78;;;25.30;65.70;;;;;;928272;152;27366;-76
2022/08/27 00:23:17;;;;;;;8.68;6.20;;;25.30;65.70;;;;;;928941;154;27264;-76
2022/08/27 00:25:44;;;;;;;6.28;5.72;;;25.30;65.80;;;;;;928645;154;27354;-76
2022/08/27 00:28:11;;;;;;;6.15;5.55;;;25.30;65.90;;;;;;927668;149;27311;-76
2022/08/27 00:30:38;;;;;;;9.95;6.28;;;25.30;66.00;;;;;;941014;149;27365;-76
2022/08/27 00:33:04;;;;;;;6.97;6.12;;;25.20;66.00;;;;;;940563;149;27452;-76
2022/08/27 00:35:32;;;;;;;9.13;6.03;;;25.20;66.00;;;;;;940519;149;27472;-76
2022/08/27 00:37:57;;;;;;;5.83;5.28;;;25.20;66.10;;;;;;940529;149;27339;-76
2022/08/27 00:40:24;;;;;;;6.12;5.53;;;25.20;66.10;;;;;;939908;149;27311;-76
2022/08/27 00:42:50;;;;;;;6.97;5.78;;;25.10;66.20;;;;;;940107;149;27378;-76
2022/08/27 00:45:17;;;;;;;7.72;5.75;;;25.10;66.20;;;;;;939958;149;27452;-75
2022/08/27 00:47:43;;;;;;;5.72;5.00;;;25.10;66.20;;;;;;939191;149;27479;-76
2022/08/27 00:50:13;;;;;;;5.95;5.45;;;25.10;66.40;;;;;;939575;149;27327;-76
2022/08/27 00:52:52;;;;;;;6.40;5.65;;;25.10;66.40;;;;;;941094;149;27416;-76
2022/08/27 00:55:18;;;;;;;6.75;5.42;;;25.00;66.50;;;;;;941298;149;27345;-75
2022/08/27 00:57:45;;;;;;;6.00;4.83;;;24.90;66.50;;;;;;940419;149;27325;-75
2022/08/27 01:00:11;;;;;;;5.72;5.25;;;25.00;66.80;;;;;;939317;149;27471;-75
2022/08/27 01:02:38;;;;;;;6.12;5.42;;;24.90;66.80;;;;;;939720;149;27403;-75
2022/08/27 01:05:10;;;;;;;6.65;5.37;;;24.90;67.00;;;;;;939199;149;27271;-75
2022/08/27 01:07:37;;;;;;;7.03;5.22;;;24.90;67.10;;;;;;939815;149;27346;-75
2022/08/27 01:10:04;;;;;;;10.10;5.53;;;24.90;67.20;;;;;;938386;149;27921;-75
2022/08/27 01:12:30;;;;;;;6.80;5.12;;;24.90;67.30;;;;;;939447;149;27374;-75
2022/08/27 01:14:57;;;;;;;5.65;5.17;;;24.80;67.30;;;;;;941654;149;27373;-75
2022/08/27 01:17:23;;;;;;;6.15;5.45;;;24.80;67.50;;;;;;940700;149;27322;-75
2022/08/27 01:19:55;;;;;;;7.20;5.17;;;24.80;67.50;;;;;;940009;149;27319;-75
2022/08/27 01:22:23;;;;;;;6.28;4.87;;;24.80;67.60;;;;;;939900;149;27446;-75
2022/08/27 01:24:49;;;;;;;6.17;5.53;;;24.80;67.60;;;;;;938846;149;27427;-75
2022/08/27 01:27:18;;;;;;;5.97;4.78;;;24.80;67.70;;;;;;939328;149;27351;-75
2022/08/27 01:29:44;;;;;;;5.87;4.97;;;24.80;67.80;;;;;;932845;149;27387;-75
2022/08/27 01:32:19;;;;;;;7.62;5.80;;;24.80;67.80;;;;;;928315;154;28007;-75
2022/08/27 01:34:46;;;;;;;5.78;5.05;;;24.70;67.90;;;;;;928342;153;27356;-75
2022/08/27 01:37:13;;;;;;;7.22;4.97;;;24.70;67.90;;;;;;927759;154;27428;-74
2022/08/27 01:39:40;;;;;;;6.60;5.15;;;24.70;68.00;;;;;;927905;152;27338;-74
2022/08/27 01:42:06;;;;;;;5.45;4.90;;;24.70;68.10;;;;;;927206;154;27508;-75
2022/08/27 01:44:47;;;;;;;5.92;4.60;;;24.70;68.10;;;;;;927269;153;27368;-75
2022/08/27 01:47:14;;;;;;;8.75;5.33;;;24.70;68.20;;;;;;927826;154;27353;-75
2022/08/27 01:49:40;;;;;;;5.55;4.83;;;24.70;68.20;;;;;;928301;154;27307;-75
2022/08/27 01:52:07;;;;;;;5.47;4.83;;;24.70;68.40;;;;;;928007;154;27385;-75
2022/08/27 01:54:34;;;;;;;4.72;4.33;;;24.70;68.30;;;;;;929559;151;27474;-75
2022/08/27 01:57:00;;;;;;;6.83;4.53;;;24.70;68.40;;;;;;927850;154;27458;-75
2022/08/27 01:59:27;;;;;;;6.67;5.28;;;24.60;68.40;;;;;;927100;154;27347;-75
2022/08/27 02:01:53;;;;;;;6.75;5.08;;;24.60;68.40;;;;;;928152;154;27435;-75
2022/08/27 02:04:20;;;;;;;4.87;4.40;;;24.60;68.50;;;;;;928466;154;27333;-75
2022/08/27 02:06:46;;;;;;;7.03;4.17;;;24.60;68.60;;;;;;928502;152;27350;-75
2022/08/27 02:09:13;;;;;;;6.25;4.72;;;24.60;69.50;;;;;;943321;151;27344;-75
2022/08/27 02:11:40;;;;;;;5.50;4.53;;;24.60;68.70;;;;;;928751;154;27378;-75
2022/08/27 02:14:06;;;;;;;5.33;4.83;;;24.60;68.80;;;;;;934403;151;27320;-75
2022/08/27 02:16:33;;;;;;;5.83;4.55;;;24.60;68.90;;;;;;928027;154;27701;-75
2022/08/27 02:18:59;;;;;;;4.80;4.28;;;24.50;68.90;;;;;;927235;154;27330;-75
2022/08/27 02:21:26;;;;;;;4.97;4.47;;;24.50;68.90;;;;;;935927;151;27360;-75
2022/08/27 02:23:54;;;;;;;7.05;5.12;;;24.50;68.90;;;;;;930385;151;27450;-75
2022/08/27 02:26:19;;;;;;;8.60;4.65;;;24.50;69.00;;;;;;933568;151;27360;-75
2022/08/27 02:28:46;;;;;;;7.08;4.45;;;24.50;69.00;;;;;;925667;154;27841;-75
2022/08/27 02:31:13;;;;;;;4.75;4.33;;;24.50;69.20;;;;;;928101;152;27480;-74
2022/08/27 02:33:39;;;;;;;6.10;4.35;;;24.50;69.20;;;;;;927371;152;27342;-75
2022/08/27 02:36:06;;;;;;;4.67;4.28;;;24.50;69.30;;;;;;946452;151;27398;-75
2022/08/27 02:38:32;;;;;;;6.85;4.42;;;24.50;69.30;;;;;;935251;153;27662;-75
2022/08/27 02:40:59;;;;;;;6.17;4.72;;;24.50;69.30;;;;;;944745;151;27390;-76
2022/08/27 02:43:25;;;;;;;5.45;4.10;;;24.50;69.30;;;;;;944248;151;27338;-76
2022/08/27 02:45:52;;;;;;;6.08;4.58;;;24.50;69.40;;;;;;944520;151;27437;-75
2022/08/27 02:48:19;;;;;;;7.03;4.70;;;24.40;69.40;;;;;;943933;151;27486;-76
2022/08/27 02:50:45;;;;;;;4.97;4.50;;;24.40;69.50;;;;;;943827;151;27372;-76
2022/08/27 02:53:12;;;;;;;6.70;5.08;;;24.40;69.60;;;;;;944255;151;27366;-76
2022/08/27 02:55:38;;;;;;;4.42;4.00;;;24.40;69.60;;;;;;943558;151;27448;-76
2022/08/27 02:58:05;;;;;;;7.15;4.45;;;24.40;69.60;;;;;;943880;151;27370;-75
2022/08/27 03:00:31;;;;;;;7.00;4.40;;;24.40;69.80;;;;;;943161;151;27436;-76
2022/08/27 03:02:58;;;;;;;5.62;4.70;;;24.40;69.80;;;;;;943913;151;27446;-76
2022/08/27 03:05:25;;;;;;;4.40;4.00;;;24.40;69.80;;;;;;943504;151;27454;-76
2022/08/27 03:07:51;;;;;;;5.65;4.50;;;24.40;70.60;;;;;;943211;151;27403;-75
2022/08/27 03:10:18;;;;;;;6.67;4.28;;;24.40;69.80;;;;;;943697;151;27453;-76
2022/08/27 03:12:44;;;;;;;4.42;4.03;;;24.40;70.00;;;;;;943351;151;27787;-75
2022/08/27 03:15:11;;;;;;;5.28;4.25;;;24.30;70.00;;;;;;943780;151;27706;-75
2022/08/27 03:20:24;;;;;;;5.25;4.35;;;24.30;69.30;;;;;;943708;151;27550;-76
2022/08/27 03:22:49;;;;;;;5.20;4.70;;;24.30;70.10;;;;;;943681;151;27427;-76
2022/08/27 03:25:16;;;;;;;4.70;4.20;;;24.30;70.10;;;;;;942662;151;27333;-75
2022/08/27 03:27:42;;;;;;;8.25;4.53;;;24.30;70.30;;;;;;943390;151;28105;-76
2022/08/27 03:30:09;;;;;;;7.83;4.67;;;24.30;70.40;;;;;;943989;149;27446;-76
2022/08/27 03:32:36;;;;;;;5.10;4.60;;;24.20;70.40;;;;;;942571;149;27353;-75
2022/08/27 03:35:02;;;;;;;6.40;4.45;;;24.20;70.40;;;;;;942447;149;27417;-75
2022/08/27 03:37:29;;;;;;;4.80;4.30;;;24.20;70.60;;;;;;942485;149;27306;-76
2022/08/27 03:39:55;;;;;;;5.47;4.40;;;24.20;70.60;;;;;;942528;149;27306;-76
2022/08/27 03:42:22;;;;;;;6.65;4.47;;;24.10;70.60;;;;;;942345;149;27423;-75
2022/08/27 03:44:49;;;;;;;5.25;4.28;;;24.10;70.70;;;;;;942437;149;27387;-76
2022/08/27 03:47:15;;;;;;;7.00;4.30;;;24.10;70.80;;;;;;942528;149;27364;-76
2022/08/27 03:49:42;;;;;;;6.08;4.30;;;24.10;70.90;;;;;;942053;149;27318;-75
2022/08/27 03:52:08;;;;;;;7.75;4.90;;;24.10;71.00;;;;;;943053;149;27361;-76
2022/08/27 03:54:35;;;;;;;5.45;4.45;;;24.10;71.10;;;;;;942620;149;27322;-75
2022/08/27 03:57:01;;;;;;;6.28;4.53;;;24.10;71.20;;;;;;942987;149;27415;-75
2022/08/27 03:59:28;;;;;;;8.45;4.87;;;24.10;71.30;;;;;;940736;149;27456;-76
2022/08/27 04:01:55;;;;;;;3.98;3.65;;;24.10;71.40;;;;;;941371;149;28206;-75
2022/08/27 04:04:22;;;;;;;5.65;4.37;;;24.00;71.40;;;;;;943113;149;27336;-75
2022/08/27 04:06:48;;;;;;;7.15;4.45;;;24.10;71.50;;;;;;940030;149;27700;-76
2022/08/27 04:09:14;;;;;;;6.05;4.85;;;24.10;71.80;;;;;;940770;149;27427;-75
2022/08/27 04:11:41;;;;;;;4.75;4.17;;;24.10;71.70;;;;;;942521;149;27856;-74
2022/08/27 04:14:08;;;;;;;5.97;4.72;;;24.00;71.70;;;;;;942869;149;27421;-75
2022/08/27 04:16:34;;;;;;;4.70;4.15;;;24.10;71.80;;;;;;943340;149;27463;-75
2022/08/27 04:19:01;;;;;;;6.15;4.53;;;24.10;71.80;;;;;;942371;149;27403;-76
2022/08/27 04:21:28;;;;;;;5.20;4.70;;;24.10;71.80;;;;;;942852;149;27386;-76
2022/08/27 04:23:55;;;;;;;7.35;4.70;;;24.10;71.80;;;;;;942908;149;27446;-76
2022/08/27 04:26:21;;;;;;;5.67;4.83;;;24.10;71.80;;;;;;943465;149;27367;-76
2022/08/27 04:28:47;;;;;;;8.55;4.78;;;24.00;71.80;;;;;;942017;149;27348;-76
2022/08/27 04:31:14;;;;;;;6.40;4.58;;;24.00;71.80;;;;;;942463;149;27373;-76
2022/08/27 04:33:40;;;;;;;5.45;4.42;;;24.00;71.90;;;;;;942903;149;27338;-76
2022/08/27 04:36:07;;;;;;;7.12;4.72;;;24.00;71.90;;;;;;942589;149;27362;-76
2022/08/27 04:38:33;;;;;;;4.78;4.05;;;24.00;72.00;;;;;;942006;149;27410;-76
2022/08/27 04:41:23;;;;;;;7.08;4.78;;;24.00;72.10;;;;;;940456;149;27467;-76
2022/08/27 04:43:48;;;;;;;5.37;4.87;;;24.00;72.10;;;;;;942019;149;27467;-76
2022/08/27 04:46:14;;;;;;;5.10;4.60;;;24.00;72.10;;;;;;942882;149;27344;-76
2022/08/27 04:48:41;;;;;;;7.67;4.22;;;24.00;72.10;;;;;;940268;149;27303;-76
2022/08/27 04:51:07;;;;;;;4.28;3.98;;;24.00;72.20;;;;;;943090;149;27361;-76
2022/08/27 04:53:34;;;;;;;4.75;4.35;;;24.00;72.50;;;;;;941940;149;27354;-76
2022/08/27 04:56:01;;;;;;;9.75;4.40;;;24.00;72.40;;;;;;942085;149;27900;-76
2022/08/27 04:58:27;;;;;;;6.72;4.47;;;23.90;72.50;;;;;;940660;149;27794;-76
2022/08/27 05:00:54;;;;;;;6.33;4.22;;;24.00;72.60;;;;;;941332;149;27338;-76
2022/08/27 05:03:23;;;;;;;6.42;4.53;;;24.00;72.60;;;;;;942317;149;27332;-75
2022/08/27 05:05:47;;;;;;;5.97;4.50;;;23.90;72.60;;;;;;941944;149;27389;-76
2022/08/27 05:08:14;;;;;;;4.87;4.28;;;24.00;72.80;;;;;;941774;149;27480;-76
2022/08/27 05:10:40;;;;;;;5.10;4.60;;;24.00;72.80;;;;;;942294;149;27473;-76
2022/08/27 05:13:07;;;;;;;4.75;4.25;;;24.00;72.80;;;;;;941275;149;27485;-76
2022/08/27 05:15:33;;;;;;;4.92;4.08;;;24.00;72.80;;;;;;940760;149;27443;-76
2022/08/27 05:18:00;;;;;;;5.47;4.47;;;23.90;72.90;;;;;;942843;149;27486;-76
2022/08/27 05:20:27;;;;;;;6.08;4.47;;;24.00;73.00;;;;;;940676;149;27333;-75
2022/08/27 05:22:53;;;;;;;4.50;4.10;;;24.00;73.00;;;;;;941463;149;27401;-76
2022/08/27 05:25:20;;;;;;;5.35;4.33;;;23.90;73.00;;;;;;941934;149;27410;-75
2022/08/27 05:27:46;;;;;;;6.15;4.05;;;24.00;73.10;;;;;;941431;149;27341;-75
2022/08/27 05:30:13;;;;;;;5.62;4.55;;;24.00;73.20;;;;;;941175;149;27375;-76
2022/08/27 05:32:39;;;;;;;5.45;4.70;;;24.00;73.20;;;;;;941541;149;28202;-76
2022/08/27 05:35:06;;;;;;;5.05;4.50;;;24.00;73.40;;;;;;942222;151;27318;-76
2022/08/27 05:37:33;;;;;;;6.42;4.35;;;24.00;73.40;;;;;;942391;151;27424;-76
2022/08/27 05:39:59;;;;;;;5.67;4.55;;;24.00;73.40;;;;;;942314;151;27388;-75
2022/08/27 05:42:26;;;;;;;4.90;4.40;;;24.00;73.50;;;;;;942296;151;27455;-76
2022/08/27 05:44:52;;;;;;;4.35;3.75;;;24.00;73.60;;;;;;942659;151;27357;-76
2022/08/27 05:47:19;;;;;;;4.53;4.08;;;24.00;73.70;;;;;;942194;151;27357;-76
2022/08/27 05:49:46;;;;;;;5.53;4.97;;;24.10;73.70;;;;;;942907;151;27403;-75
2022/08/27 05:52:12;;;;;;;5.83;5.20;;;24.10;73.50;;;;;;943052;151;27367;-76
2022/08/27 05:54:39;;;;;;;5.55;4.60;;;24.10;73.40;;;;;;943409;151;27666;-76
2022/08/27 05:57:05;;;;;;;5.47;4.97;;;24.10;73.40;;;;;;943231;151;27435;-76
2022/08/27 06:02:19;;;;;;;6.33;4.95;;;24.10;73.40;;;;;;942542;151;27420;-76
2022/08/27 06:04:43;;;;;;;4.65;4.25;;;24.10;73.30;;;;;;942950;151;27369;-75
2022/08/27 06:07:10;;;;;;;8.55;4.62;;;24.10;73.40;;;;;;942482;151;27395;-76
2022/08/27 06:09:37;;;;;;;6.30;4.37;;;24.20;73.40;;;;;;941810;151;27459;-75
2022/08/27 06:12:03;;;;;;;5.92;5.10;;;24.20;73.50;;;;;;942434;151;27401;-76
2022/08/27 06:14:30;;;;;;;5.35;4.30;;;24.20;73.40;;;;;;944011;151;27883;-75
2022/08/27 06:16:57;;;;;;;5.03;4.37;;;24.20;74.10;;;;;;942889;151;27360;-76
2022/08/27 06:19:23;;;;;;;5.20;4.45;;;24.20;73.40;;;;;;940050;151;27466;-76
2022/08/27 06:21:50;;;;;;;9.08;4.75;;;24.30;73.40;;;;;;942938;151;27340;-76
2022/08/27 06:24:16;;;;;;;7.28;5.17;;;24.30;73.30;;;;;;943769;151;27451;-76
2022/08/27 06:26:43;;;;;;;5.28;4.17;;;24.30;73.20;;;;;;941641;151;27474;-76
2022/08/27 06:29:09;;;;;;;5.47;4.97;;;24.30;73.20;;;;;;942984;151;27469;-76
2022/08/27 06:31:36;;;;;;;6.00;4.85;;;24.30;73.20;;;;;;942551;151;27369;-76
2022/08/27 06:34:03;;;;;;;9.75;4.97;;;24.30;73.60;;;;;;941838;149;27310;-75
2022/08/27 06:36:29;;;;;;;5.85;4.80;;;24.30;73.20;;;;;;940557;149;27860;-76
2022/08/27 06:38:56;;;;;;;4.53;4.12;;;24.30;73.30;;;;;;940232;149;27390;-76
2022/08/27 06:41:23;;;;;;;6.72;4.97;;;24.40;73.40;;;;;;939544;149;28653;-76
2022/08/27 06:43:49;;;;;;;5.15;4.20;;;24.40;73.50;;;;;;940343;149;27777;-76
2022/08/27 06:46:16;;;;;;;5.20;4.55;;;24.50;73.70;;;;;;940720;149;27330;-76
2022/08/27 06:48:43;;;;;;;5.97;4.50;;;24.50;73.90;;;;;;941395;149;27453;-75
2022/08/27 06:51:11;;;;;;;6.08;5.00;;;24.60;74.10;;;;;;940584;149;27455;-76
2022/08/27 06:53:38;;;;;;;5.05;4.55;;;24.70;74.30;;;;;;940821;149;27317;-76
2022/08/27 06:56:05;;;;;;;4.70;3.98;;;24.90;74.60;;;;;;942812;149;27967;-76
2022/08/27 06:58:33;;;;;;;7.22;4.55;;;25.10;74.80;;;;;;939644;149;27374;-76
2022/08/27 07:00:58;;;;;;;6.65;3.98;;;25.30;74.30;;;;;;940893;149;27882;-76
2022/08/27 07:03:24;;;;;;;6.62;4.42;;;25.50;73.80;;;;;;941233;149;27365;-76
2022/08/27 07:05:51;;;;;;;4.80;4.20;;;25.70;72.90;;;;;;940460;149;27326;-76
2022/08/27 07:08:18;;;;;;;5.65;4.28;;;25.90;72.20;;;;;;939586;149;27466;-76
2022/08/27 07:10:44;;;;;;;4.30;3.90;;;26.00;71.40;;;;;;942360;149;27337;-76
2022/08/27 07:13:11;;;;;;;5.85;4.22;;;26.10;70.70;;;;;;940659;149;27357;-76
2022/08/27 07:15:37;;;;;;;4.37;3.90;;;26.30;70.20;;;;;;943240;149;27354;-76
2022/08/27 07:18:04;;;;;;;6.83;4.28;;;26.40;69.70;;;;;;939680;149;28561;-76
2022/08/27 07:20:31;;;;;;;5.28;4.20;;;26.40;69.40;;;;;;938707;149;27676;-76
2022/08/27 07:22:58;;;;;;;7.45;4.87;;;26.40;69.20;;;;;;937449;149;27327;-76
2022/08/27 07:25:25;;;;;;;6.90;4.22;;;26.50;69.20;;;;;;940329;149;27362;-76
2022/08/27 07:27:50;;;;;;;3.72;3.42;;;26.60;69.10;;;;;;937913;149;27367;-76
2022/08/27 07:30:17;;;;;;;3.87;3.58;;;26.70;69.10;;;;;;940178;149;27358;-76
2022/08/27 07:32:43;;;;;;;4.15;3.75;;;26.80;68.70;;;;;;939170;149;28064;-76
2022/08/27 07:35:10;;;;;;;3.98;3.55;;;26.90;68.20;;;;;;940377;149;27329;-76
2022/08/27 07:37:37;;;;;;;3.92;3.52;;;26.90;67.80;;;;;;938962;149;27357;-76
2022/08/27 07:40:03;;;;;;;3.98;3.37;;;27.00;67.50;;;;;;939589;149;27431;-76
2022/08/27 07:45:15;;;;;;;4.00;3.42;;;27.10;66.80;;;;;;937334;149;27369;-76
2022/08/27 07:47:41;;;;;;;3.90;3.52;;;27.10;66.50;;;;;;939398;149;27767;-76
2022/08/27 07:50:08;;;;;;;3.65;3.35;;;27.20;66.10;;;;;;941472;149;27409;-76
2022/08/27 07:52:34;;;;;;;3.58;3.27;;;27.20;65.90;;;;;;942160;149;27367;-76
2022/08/27 07:55:01;;;;;;;3.80;3.50;;;27.20;65.90;;;;;;940543;149;27505;-76
2022/08/27 07:57:28;;;;;;;4.58;3.30;;;27.20;65.60;;;;;;939597;149;27401;-76
2022/08/27 07:59:54;;;;;;;3.45;3.15;;;27.20;65.40;;;;;;940714;149;27330;-76
2022/08/27 08:02:21;;;;;;;3.42;3.10;;;27.20;65.20;;;;;;938155;149;27295;-75
2022/08/27 08:04:47;;;;;;;3.05;2.85;;;27.20;65.00;;;;;;939661;149;27387;-76
2022/08/27 08:07:14;;;;;;;3.27;3.00;;;27.10;64.70;;;;;;939489;149;27338;-76
2022/08/27 08:09:41;;;;;;;3.52;3.22;;;27.10;64.50;;;;;;937910;149;27452;-76
2022/08/27 08:12:07;;;;;;;4.15;3.15;;;27.00;64.40;;;;;;938945;149;27375;-75
2022/08/27 08:14:34;;;;;;;3.20;2.90;;;27.00;64.60;;;;;;938487;149;27477;-76
2022/08/27 08:17:00;;;;;;;3.02;2.70;;;27.00;64.60;;;;;;937694;149;27491;-76
2022/08/27 08:19:27;;;;;;;3.20;2.95;;;26.90;64.70;;;;;;937803;149;27346;-76
2022/08/27 08:21:53;;;;;;;3.20;2.90;;;26.90;64.80;;;;;;939195;149;27824;-76
2022/08/27 08:24:20;;;;;;;3.50;3.20;;;26.90;64.90;;;;;;940230;149;27605;-76
2022/08/27 08:26:47;;;;;;;3.30;3.00;;;26.90;65.00;;;;;;939168;149;27406;-76
2022/08/27 08:29:13;;;;;;;4.80;3.22;;;26.90;65.10;;;;;;938610;149;27451;-76
2022/08/27 08:31:40;;;;;;;3.35;3.15;;;27.00;65.30;;;;;;939351;149;28205;-76
2022/08/27 08:34:06;;;;;;;4.37;2.77;;;27.00;65.50;;;;;;939853;149;27486;-76
2022/08/27 08:36:33;;;;;;;3.12;2.83;;;27.10;65.80;;;;;;941182;151;27366;-76
2022/08/27 08:39:00;;;;;;;3.67;3.25;;;27.30;65.70;;;;;;939820;151;27415;-76
2022/08/27 08:41:38;;;;;;;2.98;2.77;;;27.50;65.50;;;;;;939642;151;27365;-76
2022/08/27 08:44:13;;;;;;;3.25;2.95;;;27.70;65.20;;;;;;939501;151;27334;-77
2022/08/27 08:46:49;;;;;;;3.52;2.70;;;27.90;65.30;;;;;;940590;151;27357;-77
2022/08/27 08:49:43;;;;;;;2.95;2.75;;;28.20;65.60;;;;;;940322;151;27297;-76
2022/08/27 08:52:34;;;;;;;2.80;2.60;;;28.60;65.80;;;;;;923690;151;27312;-77
2022/08/27 08:55:07;;;;;;;3.00;2.77;;;29.10;65.70;;;;;;942594;151;27301;-76
2022/08/27 08:57:33;;;;;;;2.70;2.50;;;29.60;64.70;;;;;;941210;151;28159;-76
2022/08/27 09:00:06;;;;;;;3.27;2.75;;;30.20;63.70;;;;;;942162;151;27371;-76
2022/08/27 09:02:31;;;;;;;2.87;2.67;;;30.60;62.60;;;;;;942831;151;27429;-77
2022/08/27 09:04:58;;;;;;;2.72;2.45;;;31.10;61.80;;;;;;944203;151;27362;-77
2022/08/27 09:07:32;;;;;;;2.83;2.62;;;31.50;60.40;;;;;;941823;151;27410;-77
2022/08/27 09:10:09;;;;;;;4.40;2.60;;;31.90;60.00;;;;;;941905;151;27444;-76
2022/08/27 09:12:35;;;;;;;3.27;2.87;;;32.30;58.30;;;;;;944256;151;27338;-77
2022/08/27 09:15:03;;;;;;;3.47;2.35;;;32.70;57.70;;;;;;944684;151;27415;-77
2022/08/27 09:17:29;;;;;;;3.70;2.60;;;33.00;57.60;;;;;;941613;151;27470;-77
2022/08/27 09:19:55;;;;;;;2.12;2.02;;;33.40;57.00;;;;;;943590;151;27468;-77
2022/08/27 09:22:47;;;;;;;2.40;2.27;;;33.70;56.20;;;;;;943297;151;27840;-77
2022/08/27 09:25:13;;;;;;;3.12;2.55;;;34.10;55.50;;;;;;944514;151;26345;-77
2022/08/27 09:27:40;;;;;;;2.47;2.27;;;34.40;55.10;;;;;;941007;151;26378;-77
2022/08/27 09:30:06;;;;;;;3.47;2.45;;;34.60;54.10;;;;;;944387;151;27402;-77
2022/08/27 09:32:33;;;;;;;2.50;2.30;;;34.60;53.30;;;;;;943246;151;27427;-77
2022/08/27 09:34:59;;;;;;;2.98;2.27;;;34.70;52.70;;;;;;943111;149;27429;-77
2022/08/27 09:37:29;;;;;;;2.65;2.45;;;34.60;52.40;;;;;;942610;149;27382;-77
2022/08/27 09:40:03;;;;;;;2.15;2.00;;;34.60;52.00;;;;;;941986;149;27953;-77
2022/08/27 09:42:30;;;;;;;2.42;2.22;;;34.40;51.70;;;;;;938385;149;27358;-77
2022/08/27 09:44:57;;;;;;;2.15;2.05;;;34.20;51.50;;;;;;941362;149;27349;-77
2022/08/27 09:47:23;;;;;;;2.27;2.17;;;34.00;51.30;;;;;;939271;149;27349;-77
2022/08/27 09:49:49;;;;;;;2.80;2.60;;;33.80;51.60;;;;;;938692;149;28094;-77
2022/08/27 09:52:31;;;;;;;2.58;2.35;;;33.60;51.70;;;;;;938080;149;27319;-77
2022/08/27 09:54:58;;;;;;;2.58;2.37;;;33.50;51.70;;;;;;940938;149;27366;-77
2022/08/27 09:57:39;;;;;;;2.40;2.20;;;33.20;51.80;;;;;;940173;149;27409;-77
2022/08/27 10:00:06;;;;;;;2.58;2.37;;;33.10;51.80;;;;;;939101;149;27345;-77
2022/08/27 10:02:33;;;;;;;2.12;2.02;;;32.90;51.80;;;;;;939241;149;27900;-77
2022/08/27 10:04:59;;;;;;;2.65;2.45;;;32.70;51.90;;;;;;938717;149;27377;-77
2022/08/27 10:07:41;;;;;;;2.72;2.52;;;32.50;51.70;;;;;;940640;149;27482;-77
2022/08/27 10:10:10;;;;;;;2.52;2.33;;;32.40;51.60;;;;;;941189;149;27338;-77
2022/08/27 10:12:58;;;;;;;2.75;2.55;;;32.10;51.70;;;;;;942440;149;27370;-76
2022/08/27 10:15:25;;;;;;;2.30;2.08;;;31.90;52.00;;;;;;941666;149;27472;-76
2022/08/27 10:17:59;;;;;;;3.20;2.92;;;31.50;52.00;;;;;;940272;149;27347;-77
2022/08/27 10:20:41;;;;;;;3.00;2.70;;;31.30;52.40;;;;;;931462;149;27450;-77
2022/08/27 10:23:22;;;;;;;2.85;2.65;;;31.00;52.60;;;;;;940398;149;27489;-77
2022/08/27 10:25:59;;;;;;;3.02;2.52;;;30.90;53.00;;;;;;942491;149;27418;-77
2022/08/27 10:28:37;;;;;;;2.58;2.37;;;30.70;53.30;;;;;;941382;149;27491;-77
2022/08/27 10:31:07;;;;;;;2.95;2.70;;;30.60;53.60;;;;;;940093;149;27373;-77
2022/08/27 10:33:42;;;;;;;2.55;2.35;;;30.50;53.90;;;;;;940397;149;27313;-77
2022/08/27 10:36:20;;;;;;;2.95;2.52;;;30.60;54.20;;;;;;936751;149;27401;-77
2022/08/27 10:38:50;;;;;;;2.85;2.65;;;30.60;54.30;;;;;;957820;146;27456;-77
2022/08/27 10:41:16;;;;;;;3.15;2.95;;;30.70;54.30;;;;;;946106;149;27392;-77
2022/08/27 10:44:04;;;;;;;3.10;2.72;;;30.70;54.20;;;;;;947595;150;27334;-77
2022/08/27 10:46:46;;;;;;;5.35;2.80;;;30.80;54.00;;;;;;950168;150;27307;-77
2022/08/27 10:49:37;;;;;;;3.47;3.17;;;30.90;53.70;;;;;;939011;149;27842;-77
2022/08/27 10:52:06;;;;;;;3.62;2.77;;;30.90;53.60;;;;;;938275;149;27378;-77
2022/08/27 10:54:44;;;;;;;2.70;2.50;;;30.90;53.40;;;;;;946689;150;27301;-77
2022/08/27 10:57:32;;;;;;;3.20;2.90;;;30.80;53.30;;;;;;943960;151;27892;-77
2022/08/27 11:00:11;;;;;;;3.08;2.87;;;30.70;53.30;;;;;;944764;150;27351;-77
2022/08/27 11:02:46;;;;;;;3.02;2.75;;;30.70;53.50;;;;;;944769;151;27428;-77
2022/08/27 11:05:30;;;;;;;2.87;2.67;;;30.70;53.70;;;;;;944241;150;27356;-77
2022/08/27 11:08:09;;;;;;;2.87;2.65;;;30.70;53.80;;;;;;944052;150;27353;-77
2022/08/27 11:10:36;;;;;;;2.60;2.40;;;30.70;53.70;;;;;;944690;151;27377;-76
2022/08/27 11:13:05;;;;;;;2.77;2.58;;;30.80;53.60;;;;;;944422;151;27309;-76
2022/08/27 11:15:35;;;;;;;3.20;2.90;;;30.80;53.50;;;;;;944367;151;27449;-76
2022/08/27 11:18:04;;;;;;;3.70;2.58;;;30.80;53.50;;;;;;944863;150;27444;-77
2022/08/27 11:20:31;;;;;;;2.52;2.22;;;30.90;53.50;;;;;;944160;151;27340;-76
2022/08/27 11:23:06;;;;;;;3.25;2.95;;;30.90;53.40;;;;;;944689;150;27426;-77
2022/08/27 11:25:55;;;;;;;3.10;2.70;;;31.00;53.30;;;;;;945148;151;27397;-76
2022/08/27 11:28:21;;;;;;;3.22;2.92;;;31.00;53.30;;;;;;945045;150;27830;-77
2022/08/27 11:31:08;;;;;;;2.70;2.50;;;31.10;53.30;;;;;;944060;151;27335;-76
2022/08/27 11:33:53;;;;;;;2.90;2.70;;;31.20;53.10;;;;;;944866;150;27919;-76
2022/08/27 11:36:38;;;;;;;2.85;2.65;;;31.20;53.00;;;;;;944639;151;27450;-76
2022/08/27 11:39:29;;;;;;;2.70;2.50;;;31.30;52.80;;;;;;944492;150;27301;-77
2022/08/27 11:42:13;;;;;;;2.62;2.42;;;31.40;52.80;;;;;;944591;151;27386;-76
2022/08/27 11:44:42;;;;;;;2.52;2.33;;;31.40;52.60;;;;;;944929;151;27305;-77
2022/08/27 11:47:09;;;;;;;4.33;3.12;;;31.50;52.50;;;;;;944956;150;27421;-76
2022/08/27 11:49:53;;;;;;;2.90;2.70;;;31.50;52.30;;;;;;944343;150;27420;-77
2022/08/27 11:52:20;;;;;;;2.40;2.27;;;31.50;52.20;;;;;;945536;150;27323;-76
2022/08/27 11:54:47;;;;;;;2.30;2.10;;;31.50;52.00;;;;;;944680;151;27312;-76
2022/08/27 11:57:25;;;;;;;2.50;2.30;;;31.50;52.00;;;;;;944782;151;27326;-76
2022/08/27 11:59:52;;;;;;;2.50;2.30;;;31.50;52.00;;;;;;944758;150;27339;-76
2022/08/27 12:02:21;;;;;;;2.50;2.30;;;31.40;51.90;;;;;;944451;151;27349;-76
2022/08/27 12:04:48;;;;;;;2.58;2.47;;;31.50;52.00;;;;;;945171;150;27406;-76
2022/08/27 12:07:16;;;;;;;3.27;2.37;;;31.50;52.00;;;;;;945921;150;27320;-76
2022/08/27 12:09:46;;;;;;;2.47;2.27;;;31.50;52.00;;;;;;945322;150;27403;-76
2022/08/27 12:12:16;;;;;;;2.50;2.40;;;31.50;52.00;;;;;;945376;150;27760;-76
2022/08/27 12:14:45;;;;;;;2.70;2.50;;;31.50;51.80;;;;;;944541;150;27442;-76
2022/08/27 12:17:21;;;;;;;2.58;2.35;;;31.60;51.70;;;;;;945251;150;27880;-76
2022/08/27 12:19:52;;;;;;;3.50;2.50;;;31.50;51.50;;;;;;945022;150;27436;-76
2022/08/27 12:23:38;;;;;;;2.90;2.70;;;31.50;51.40;;;;;;945669;151;27328;-76
2022/08/27 12:25:06;;;;;;;3.35;2.55;;;31.40;51.30;;;;;;943118;150;27454;-76
2022/08/27 12:27:30;;;;;;;3.27;2.62;;;31.40;51.40;;;;;;945385;150;27388;-76
2022/08/27 12:30:18;;;;;;;3.58;2.95;;;31.20;51.20;;;;;;944397;151;27545;-76
2022/08/27 12:32:45;;;;;;;3.08;2.83;;;31.10;51.40;;;;;;945471;151;27444;-76
2022/08/27 12:35:11;;;;;;;3.50;2.75;;;31.00;51.50;;;;;;946044;150;27291;-76
2022/08/27 12:38:05;;;;;;;2.85;2.65;;;30.90;51.70;;;;;;940463;150;27648;-76
2022/08/27 12:40:37;;;;;;;2.85;2.62;;;30.80;51.80;;;;;;937012;151;27353;-77
2022/08/27 12:43:04;;;;;;;2.92;2.72;;;30.70;51.70;;;;;;936873;150;27735;-76
2022/08/27 12:45:31;;;;;;;3.10;2.80;;;30.70;51.90;;;;;;937094;149;27430;-76
2022/08/27 12:47:57;;;;;;;2.42;2.22;;;30.60;51.50;;;;;;938227;149;27251;-76
2022/08/27 12:50:26;;;;;;;2.72;2.52;;;30.60;52.20;;;;;;936821;152;27313;-77
2022/08/27 12:53:23;;;;;;;2.77;2.58;;;30.60;52.10;;;;;;937486;150;27356;-76
2022/08/27 12:56:27;;;;;;;3.02;2.55;;;30.60;51.50;;;;;;937490;149;27418;-76
2022/08/27 12:58:53;;;;;;;3.30;3.00;;;30.60;52.20;;;;;;936717;151;27458;-77
2022/08/27 13:01:28;;;;;;;2.75;2.55;;;30.60;52.30;;;;;;937552;151;27414;-77
2022/08/27 13:03:55;;;;;;;3.05;2.80;;;30.60;52.40;;;;;;936277;149;27314;-77
2022/08/27 13:06:22;;;;;;;3.45;3.22;;;30.60;52.50;;;;;;937316;149;27329;-77